Time;durP1;ratioP1;P1;durP2;ratioP2;P2;SDS_P1;SDS_P2;PMS_P1;PMS_P2;Temp;Humidity;BMP_temperature;BMP_pressure;BME280_temperature;BME280_humidity;BME280_pressure;Samples;Min_cycle;Max_cycle;Signal;HPM_P1;HPM_P2
2023/08/31 00:00:44;;;;;;;1.67;1.02;;;;;;;;;;10022469;28;20053;-73
2023/08/31 00:05:40;;;;;;;3.28;1.20;;;;;;;;;;10006350;28;20210;-72
2023/08/31 00:10:34;;;;;;;1.50;1.40;;;;;;;;;;10018964;28;20425;-73
2023/08/31 00:15:28;;;;;;;3.08;1.40;;;;;;;;;;10022405;28;20538;-72
2023/08/31 00:20:21;;;;;;;1.15;1.00;;;;;;;;;;10018315;28;20115;-73
2023/08/31 00:25:13;;;;;;;1.45;1.00;;;;;;;;;;10023343;28;20046;-73
2023/08/31 00:30:07;;;;;;;1.55;0.93;;;;;;;;;;10022133;28;20412;-73
2023/08/31 00:34:59;;;;;;;1.50;1.33;;;;;;;;;;10005590;28;20097;-72
2023/08/31 00:39:52;;;;;;;1.10;0.88;;;;;;;;;;10022021;28;20050;-72
2023/08/31 00:44:46;;;;;;;1.15;1.05;;;;;;;;;;10023198;28;20535;-71
2023/08/31 00:49:40;;;;;;;1.23;0.80;;;;;;;;;;10005025;28;20053;-73
2023/08/31 00:54:34;;;;;;;3.33;1.15;;;;;;;;;;10022825;28;20050;-74
2023/08/31 00:59:26;;;;;;;1.05;0.90;;;;;;;;;;10026647;28;20372;-72
2023/08/31 01:04:30;;;;;;;3.80;1.20;;;;;;;;;;10030762;28;20169;-72
2023/08/31 01:09:51;;;;;;;2.33;0.90;;;;;;;;;;10029789;28;20128;-73
2023/08/31 01:15:02;;;;;;;1.38;1.27;;;;;;;;;;10003890;28;20054;-75
2023/08/31 01:19:59;;;;;;;0.80;0.80;;;;;;;;;;10016164;28;20042;-73
2023/08/31 01:24:51;;;;;;;1.00;0.93;;;;;;;;;;10007313;28;20121;-73
2023/08/31 01:29:44;;;;;;;1.15;1.00;;;;;;;;;;10029145;28;20113;-75
2023/08/31 01:34:36;;;;;;;1.27;0.82;;;;;;;;;;10028590;28;20045;-73
2023/08/31 01:39:44;;;;;;;2.35;1.27;;;;;;;;;;10011228;28;20053;-75
2023/08/31 01:44:38;;;;;;;1.80;1.20;;;;;;;;;;10026683;28;20101;-74
2023/08/31 01:49:36;;;;;;;3.17;1.02;;;;;;;;;;10011150;28;20056;-74
2023/08/31 01:54:28;;;;;;;3.90;1.23;;;;;;;;;;10028617;28;20046;-75
2023/08/31 01:59:20;;;;;;;3.60;1.10;;;;;;;;;;10010367;28;20097;-75
2023/08/31 02:04:12;;;;;;;3.42;1.40;;;;;;;;;;10010341;28;20041;-75
2023/08/31 02:09:05;;;;;;;3.00;1.20;;;;;;;;;;10034263;28;20499;-72
2023/08/31 02:13:58;;;;;;;5.72;1.13;;;;;;;;;;10028720;28;20042;-72
2023/08/31 02:18:50;;;;;;;1.35;1.25;;;;;;;;;;10009205;28;20132;-72
2023/08/31 02:23:41;;;;;;;1.27;0.90;;;;;;;;;;10032401;28;20045;-73
2023/08/31 02:28:33;;;;;;;1.00;0.90;;;;;;;;;;10066565;28;20056;-73
2023/08/31 02:33:25;;;;;;;2.10;1.20;;;;;;;;;;10049119;28;20057;-73
2023/08/31 02:38:17;;;;;;;3.08;1.30;;;;;;;;;;10048671;28;20073;-73
2023/08/31 02:43:11;;;;;;;2.03;1.15;;;;;;;;;;10066010;28;20042;-73
2023/08/31 02:48:04;;;;;;;1.40;1.15;;;;;;;;;;10065373;28;20060;-73
2023/08/31 02:52:57;;;;;;;2.30;1.55;;;;;;;;;;10065892;28;20492;-72
2023/08/31 02:57:49;;;;;;;4.00;1.73;;;;;;;;;;10047426;28;20045;-73
2023/08/31 03:02:41;;;;;;;4.00;1.50;;;;;;;;;;10038469;28;20046;-72
2023/08/31 03:07:33;;;;;;;2.53;1.75;;;;;;;;;;10008060;28;20145;-73
2023/08/31 03:12:25;;;;;;;1.95;1.30;;;;;;;;;;10025343;28;20041;-72
2023/08/31 03:17:18;;;;;;;4.30;1.70;;;;;;;;;;10007486;28;20077;-72
2023/08/31 03:22:10;;;;;;;3.13;1.42;;;;;;;;;;10007068;28;20113;-72
2023/08/31 03:27:03;;;;;;;3.03;1.60;;;;;;;;;;10025305;28;20042;-72
2023/08/31 03:31:55;;;;;;;3.45;1.70;;;;;;;;;;10006926;28;20053;-73
2023/08/31 03:36:47;;;;;;;6.63;1.95;;;;;;;;;;10006199;28;20038;-73
2023/08/31 03:41:40;;;;;;;12.15;2.17;;;;;;;;;;10005686;28;20129;-72
2023/08/31 03:46:32;;;;;;;7.93;1.85;;;;;;;;;;10006423;28;20073;-72
2023/08/31 03:51:24;;;;;;;2.78;1.48;;;;;;;;;;10024027;28;20431;-72
2023/08/31 03:56:16;;;;;;;5.18;1.48;;;;;;;;;;10006731;28;20416;-72
2023/08/31 04:01:10;;;;;;;3.88;1.63;;;;;;;;;;10005969;28;20081;-73
2023/08/31 04:06:04;;;;;;;3.58;1.60;;;;;;;;;;10006225;28;20380;-72
2023/08/31 04:10:57;;;;;;;5.63;1.60;;;;;;;;;;10022346;28;20136;-72
2023/08/31 04:15:49;;;;;;;2.67;2.20;;;;;;;;;;10005491;28;20124;-72
2023/08/31 04:20:52;;;;;;;1.92;1.65;;;;;;;;;;10005878;28;20052;-72
2023/08/31 04:25:44;;;;;;;1.70;1.60;;;;;;;;;;10023534;28;20053;-72
2023/08/31 04:30:36;;;;;;;4.88;1.45;;;;;;;;;;10023239;28;20046;-72
2023/08/31 04:35:27;;;;;;;4.22;1.58;;;;;;;;;;10030042;28;20049;-71
2023/08/31 04:40:19;;;;;;;2.25;1.75;;;;;;;;;;10030982;28;20132;-71
2023/08/31 04:45:12;;;;;;;1.92;1.70;;;;;;;;;;10030307;28;20049;-71
2023/08/31 04:50:06;;;;;;;2.95;1.80;;;;;;;;;;10029572;28;20054;-72
2023/08/31 04:55:00;;;;;;;1.98;1.42;;;;;;;;;;10029275;28;20046;-73
2023/08/31 04:59:52;;;;;;;3.28;1.45;;;;;;;;;;10030482;28;20045;-72
2023/08/31 05:04:44;;;;;;;1.92;1.80;;;;;;;;;;10029939;28;20045;-73
2023/08/31 05:09:36;;;;;;;3.20;2.05;;;;;;;;;;10030389;28;20465;-73
2023/08/31 05:14:27;;;;;;;1.35;1.25;;;;;;;;;;10030375;28;20129;-73
2023/08/31 05:19:19;;;;;;;3.05;1.85;;;;;;;;;;10029819;28;20057;-73
2023/08/31 05:24:11;;;;;;;5.25;1.40;;;;;;;;;;10030069;28;20484;-73
2023/08/31 05:29:04;;;;;;;2.17;1.60;;;;;;;;;;10029879;28;20049;-73
2023/08/31 05:33:55;;;;;;;2.10;1.60;;;;;;;;;;10029544;28;20116;-73
2023/08/31 05:38:47;;;;;;;2.80;1.70;;;;;;;;;;10029160;28;20121;-73
2023/08/31 05:43:42;;;;;;;1.70;1.60;;;;;;;;;;10022964;28;20048;-75
2023/08/31 05:48:36;;;;;;;4.38;1.67;;;;;;;;;;10023882;28;20054;-73
2023/08/31 05:53:28;;;;;;;3.95;1.50;;;;;;;;;;10027555;28;20042;-74
2023/08/31 05:58:20;;;;;;;4.57;2.30;;;;;;;;;;10024888;28;20081;-75
2023/08/31 06:03:12;;;;;;;2.47;1.42;;;;;;;;;;10023969;28;20037;-75
2023/08/31 06:08:04;;;;;;;3.47;1.60;;;;;;;;;;10023631;28;20053;-75
2023/08/31 06:12:56;;;;;;;7.88;1.70;;;;;;;;;;10028374;28;20042;-74
2023/08/31 06:17:48;;;;;;;1.92;1.80;;;;;;;;;;10027525;28;20152;-76
2023/08/31 06:22:40;;;;;;;9.43;1.85;;;;;;;;;;10027668;28;20041;-75
2023/08/31 06:27:32;;;;;;;4.90;1.58;;;;;;;;;;10027655;28;20491;-75
2023/08/31 06:32:24;;;;;;;1.60;1.50;;;;;;;;;;10027578;28;20077;-75
2023/08/31 06:37:16;;;;;;;2.25;1.83;;;;;;;;;;10026813;28;20125;-75
2023/08/31 06:42:08;;;;;;;5.18;2.20;;;;;;;;;;10025366;28;20129;-76
2023/08/31 06:47:03;;;;;;;1.58;1.48;;;;;;;;;;10025490;28;20042;-76
2023/08/31 06:51:55;;;;;;;6.25;1.80;;;;;;;;;;10026131;28;20050;-75
2023/08/31 06:56:47;;;;;;;5.03;1.70;;;;;;;;;;10026086;28;20037;-75
2023/08/31 07:01:39;;;;;;;3.17;1.70;;;;;;;;;;10025931;28;20543;-74
2023/08/31 07:06:34;;;;;;;2.78;1.55;;;;;;;;;;10024176;28;20042;-75
2023/08/31 07:11:27;;;;;;;2.78;1.67;;;;;;;;;;10026202;28;20042;-74
2023/08/31 07:16:19;;;;;;;4.00;1.38;;;;;;;;;;10025638;28;20065;-76
2023/08/31 07:21:11;;;;;;;3.15;1.48;;;;;;;;;;10025337;28;20046;-74
2023/08/31 07:26:05;;;;;;;4.43;1.40;;;;;;;;;;10023721;28;20354;-75
2023/08/31 07:31:16;;;;;;;2.10;1.60;;;;;;;;;;10025209;28;20128;-75
2023/08/31 07:36:08;;;;;;;2.05;1.38;;;;;;;;;;10023715;28;20140;-76
2023/08/31 07:41:00;;;;;;;1.33;1.23;;;;;;;;;;10025091;28;20096;-76
2023/08/31 07:45:53;;;;;;;3.28;1.70;;;;;;;;;;10024158;28;20132;-76
2023/08/31 07:50:45;;;;;;;2.97;1.40;;;;;;;;;;10024051;28;20050;-75
2023/08/31 07:55:37;;;;;;;2.55;1.30;;;;;;;;;;10023720;28;20049;-75
2023/08/31 08:00:29;;;;;;;2.83;1.40;;;;;;;;;;10024192;28;20112;-76
2023/08/31 08:05:21;;;;;;;4.35;1.52;;;;;;;;;;10023672;28;20421;-75
2023/08/31 08:10:14;;;;;;;4.32;2.50;;;;;;;;;;10023121;28;20053;-77
2023/08/31 08:15:09;;;;;;;3.63;2.08;;;;;;;;;;10023973;28;20460;-76
2023/08/31 08:20:01;;;;;;;3.10;1.80;;;;;;;;;;9982953;28;20042;-75
2023/08/31 08:24:53;;;;;;;3.35;1.75;;;;;;;;;;10016678;28;20923;-76
2023/08/31 08:29:45;;;;;;;3.35;1.60;;;;;;;;;;10022902;28;20046;-75
2023/08/31 08:34:37;;;;;;;6.93;1.60;;;;;;;;;;10023444;28;20038;-75
2023/08/31 08:39:29;;;;;;;3.58;1.77;;;;;;;;;;10023108;28;20145;-75
2023/08/31 08:44:22;;;;;;;6.57;2.05;;;;;;;;;;10023364;28;20054;-76
2023/08/31 08:49:15;;;;;;;5.53;2.03;;;;;;;;;;10022938;28;20190;-76
2023/08/31 08:54:08;;;;;;;4.25;1.75;;;;;;;;;;10020890;28;20473;-75
2023/08/31 08:59:00;;;;;;;4.03;1.65;;;;;;;;;;10023403;28;20049;-76
2023/08/31 09:03:52;;;;;;;5.20;1.70;;;;;;;;;;10023266;28;20094;-76
2023/08/31 09:08:43;;;;;;;3.53;1.80;;;;;;;;;;10022243;28;20054;-75
2023/08/31 09:13:35;;;;;;;5.85;1.77;;;;;;;;;;10022435;28;20042;-76
2023/08/31 09:18:29;;;;;;;2.97;2.15;;;;;;;;;;10024036;28;20080;-76
2023/08/31 09:23:22;;;;;;;7.10;1.73;;;;;;;;;;10029985;28;20042;-76
2023/08/31 09:28:14;;;;;;;4.05;1.98;;;;;;;;;;10029033;28;20097;-74
2023/08/31 09:33:20;;;;;;;4.18;2.38;;;;;;;;;;10029392;28;20483;-75
2023/08/31 09:38:14;;;;;;;4.32;1.92;;;;;;;;;;10028875;28;20053;-74
2023/08/31 09:43:07;;;;;;;11.43;3.53;;;;;;;;;;10028273;28;20073;-76
2023/08/31 09:48:01;;;;;;;2.00;1.75;;;;;;;;;;10028671;28;20046;-75
2023/08/31 09:52:56;;;;;;;7.28;1.88;;;;;;;;;;10027056;28;20038;-75
2023/08/31 09:57:48;;;;;;;5.75;2.47;;;;;;;;;;10028969;28;20077;-75
2023/08/31 10:02:40;;;;;;;5.63;2.20;;;;;;;;;;10028417;28;20049;-76
2023/08/31 10:07:32;;;;;;;4.03;2.03;;;;;;;;;;10027594;28;20049;-75
2023/08/31 10:12:25;;;;;;;7.05;2.17;;;;;;;;;;10026425;28;20116;-76
2023/08/31 10:17:17;;;;;;;3.85;1.60;;;;;;;;;;10026111;28;20054;-76
2023/08/31 10:22:09;;;;;;;4.53;1.75;;;;;;;;;;10025446;28;20050;-76
2023/08/31 10:27:17;;;;;;;5.05;1.83;;;;;;;;;;10027198;28;20096;-75
2023/08/31 10:32:09;;;;;;;7.70;2.20;;;;;;;;;;10024263;28;20057;-76
2023/08/31 10:37:03;;;;;;;5.65;2.13;;;;;;;;;;10026355;28;20663;-75
2023/08/31 10:42:05;;;;;;;3.28;2.17;;;;;;;;;;10026131;28;20064;-76
2023/08/31 10:47:00;;;;;;;6.30;2.40;;;;;;;;;;10026162;28;20041;-75
2023/08/31 10:52:16;;;;;;;6.85;2.05;;;;;;;;;;10027060;28;20050;-76
2023/08/31 10:57:30;;;;;;;8.27;1.95;;;;;;;;;;10026333;28;20128;-75
2023/08/31 11:02:37;;;;;;;4.93;2.10;;;;;;;;;;10029731;28;20049;-77
2023/08/31 11:07:29;;;;;;;6.85;2.30;;;;;;;;;;10029158;28;20073;-76
2023/08/31 11:12:23;;;;;;;2.58;2.00;;;;;;;;;;10025487;28;20428;-76
2023/08/31 11:17:16;;;;;;;2.25;1.50;;;;;;;;;;10024941;28;20049;-76
2023/08/31 11:22:09;;;;;;;3.05;1.58;;;;;;;;;;10024712;28;20041;-75
2023/08/31 11:27:04;;;;;;;8.73;1.98;;;;;;;;;;10025228;28;20054;-77
2023/08/31 11:32:00;;;;;;;2.67;1.70;;;;;;;;;;10024268;28;20072;-77
2023/08/31 11:36:53;;;;;;;5.35;1.65;;;;;;;;;;10023810;28;20042;-76
2023/08/31 11:41:45;;;;;;;2.85;1.65;;;;;;;;;;10021701;28;20063;-75
2023/08/31 11:46:37;;;;;;;7.22;1.95;;;;;;;;;;10022456;28;20042;-74
2023/08/31 11:51:29;;;;;;;4.28;1.83;;;;;;;;;;10022381;28;20041;-76
2023/08/31 11:56:21;;;;;;;6.53;2.67;;;;;;;;;;10021647;28;20136;-76
2023/08/31 12:01:23;;;;;;;2.65;1.75;;;;;;;;;;10023894;28;20181;-77
2023/08/31 12:06:18;;;;;;;7.95;2.60;;;;;;;;;;10023392;28;20053;-78
2023/08/31 12:11:10;;;;;;;4.72;1.92;;;;;;;;;;10023537;28;20077;-76
2023/08/31 12:16:04;;;;;;;2.55;1.27;;;;;;;;;;10023452;28;20108;-77
2023/08/31 12:20:57;;;;;;;9.60;2.83;;;;;;;;;;10022962;28;20306;-77
2023/08/31 12:25:49;;;;;;;10.43;2.17;;;;;;;;;;10021999;28;20057;-76
2023/08/31 12:30:43;;;;;;;9.10;2.17;;;;;;;;;;10022836;28;20057;-74
2023/08/31 12:35:35;;;;;;;2.70;1.58;;;;;;;;;;10020624;28;20144;-75
2023/08/31 12:40:27;;;;;;;5.07;2.00;;;;;;;;;;10022986;28;20034;-75
2023/08/31 12:45:19;;;;;;;5.30;1.70;;;;;;;;;;10038858;28;20128;-76
2023/08/31 12:50:11;;;;;;;3.75;1.67;;;;;;;;;;10043073;28;20092;-76
2023/08/31 12:55:04;;;;;;;3.10;1.70;;;;;;;;;;10029256;28;20046;-77
2023/08/31 12:59:56;;;;;;;6.00;1.95;;;;;;;;;;10026080;28;20058;-74
2023/08/31 13:04:49;;;;;;;3.25;2.72;;;;;;;;;;10030810;28;20124;-76
2023/08/31 13:09:41;;;;;;;4.32;1.73;;;;;;;;;;10030730;28;20089;-76
2023/08/31 13:14:34;;;;;;;3.53;1.85;;;;;;;;;;10030591;28;20052;-76
2023/08/31 13:19:26;;;;;;;4.38;1.83;;;;;;;;;;10032655;28;20046;-70
2023/08/31 13:24:21;;;;;;;5.18;1.40;;;;;;;;;;10029116;28;20044;-70
2023/08/31 13:29:13;;;;;;;10.10;2.22;;;;;;;;;;10029688;28;20353;-71
2023/08/31 13:34:08;;;;;;;3.88;1.85;;;;;;;;;;10029321;28;20049;-71
2023/08/31 13:39:00;;;;;;;5.78;2.35;;;;;;;;;;10028794;28;20491;-71
2023/08/31 13:43:52;;;;;;;2.58;2.03;;;;;;;;;;10029130;28;20053;-70
2023/08/31 13:48:44;;;;;;;5.78;1.83;;;;;;;;;;10029170;28;20149;-70
2023/08/31 13:53:36;;;;;;;4.93;2.15;;;;;;;;;;10028618;28;20046;-70
2023/08/31 13:58:28;;;;;;;6.88;2.85;;;;;;;;;;10028750;28;20456;-71
2023/08/31 14:03:20;;;;;;;4.22;2.30;;;;;;;;;;10028481;28;20062;-72
2023/08/31 14:08:12;;;;;;;3.03;1.95;;;;;;;;;;10027008;28;20044;-72
2023/08/31 14:13:05;;;;;;;4.47;2.47;;;;;;;;;;10036031;28;20045;-71
2023/08/31 14:17:57;;;;;;;4.97;2.17;;;;;;;;;;10067603;28;20041;-71
2023/08/31 14:22:50;;;;;;;4.53;2.58;;;;;;;;;;10029280;28;20137;-71
2023/08/31 14:27:42;;;;;;;4.90;2.40;;;;;;;;;;10027311;28;20050;-71
2023/08/31 14:32:34;;;;;;;3.75;3.38;;;;;;;;;;10028862;28;20041;-70
2023/08/31 14:37:26;;;;;;;7.22;3.22;;;;;;;;;;10026567;28;20045;-71
2023/08/31 14:42:20;;;;;;;6.80;3.30;;;;;;;;;;10026633;28;20483;-71
2023/08/31 14:47:12;;;;;;;8.77;3.40;;;;;;;;;;10021888;28;20049;-72
2023/08/31 14:52:05;;;;;;;4.80;2.25;;;;;;;;;;10021518;28;20046;-74
2023/08/31 14:56:58;;;;;;;6.07;2.10;;;;;;;;;;10021259;28;20562;-72
2023/08/31 15:01:50;;;;;;;4.50;2.20;;;;;;;;;;10022171;28;20080;-72
2023/08/31 15:06:43;;;;;;;4.22;2.47;;;;;;;;;;10028862;28;20385;-72
2023/08/31 15:11:36;;;;;;;3.65;2.45;;;;;;;;;;10029024;28;20053;-73
2023/08/31 15:16:28;;;;;;;10.05;1.92;;;;;;;;;;10028494;28;20487;-73
2023/08/31 15:21:20;;;;;;;6.05;2.00;;;;;;;;;;10023327;28;20128;-73
2023/08/31 15:26:14;;;;;;;2.80;2.00;;;;;;;;;;10025132;28;20049;-72
2023/08/31 15:31:06;;;;;;;6.03;2.35;;;;;;;;;;10026289;28;20057;-72
2023/08/31 15:36:05;;;;;;;3.65;2.20;;;;;;;;;;10022103;28;20042;-74
2023/08/31 15:40:58;;;;;;;6.00;2.40;;;;;;;;;;10023476;28;20124;-72
2023/08/31 15:45:50;;;;;;;6.63;2.70;;;;;;;;;;10005689;28;20052;-72
2023/08/31 15:50:42;;;;;;;5.80;1.90;;;;;;;;;;10017422;28;20046;-74
2023/08/31 15:55:34;;;;;;;7.75;2.45;;;;;;;;;;10021820;28;20046;-73
2023/08/31 16:00:26;;;;;;;4.07;1.67;;;;;;;;;;10029583;28;20392;-72
2023/08/31 16:05:18;;;;;;;5.45;2.03;;;;;;;;;;10020369;28;20073;-73
2023/08/31 16:10:12;;;;;;;9.90;2.97;;;;;;;;;;10023035;28;20480;-75
2023/08/31 16:15:04;;;;;;;6.75;2.47;;;;;;;;;;10023634;28;20046;-74
2023/08/31 16:19:57;;;;;;;7.20;2.60;;;;;;;;;;10023958;28;20054;-73
2023/08/31 16:24:49;;;;;;;5.57;2.58;;;;;;;;;;10023730;28;20050;-75
2023/08/31 16:29:41;;;;;;;7.45;2.92;;;;;;;;;;10030536;28;20045;-74
2023/08/31 16:34:34;;;;;;;5.95;3.10;;;;;;;;;;10036966;28;20050;-74
2023/08/31 16:39:26;;;;;;;7.60;3.03;;;;;;;;;;10035293;28;20053;-72
2023/08/31 16:44:18;;;;;;;6.13;2.30;;;;;;;;;;10036253;28;20041;-74
2023/08/31 16:49:10;;;;;;;5.47;2.67;;;;;;;;;;10035953;28;20057;-74
2023/08/31 16:54:03;;;;;;;5.10;2.38;;;;;;;;;;10035958;28;20038;-74
2023/08/31 16:58:56;;;;;;;6.63;2.90;;;;;;;;;;10035927;28;20042;-72
2023/08/31 17:03:50;;;;;;;9.60;3.05;;;;;;;;;;10036260;28;20161;-74
2023/08/31 17:08:43;;;;;;;5.45;2.33;;;;;;;;;;10035714;28;20328;-72
2023/08/31 17:13:35;;;;;;;5.72;3.03;;;;;;;;;;10036294;28;20060;-74
2023/08/31 17:18:26;;;;;;;5.05;2.28;;;;;;;;;;10036317;28;20427;-75
2023/08/31 17:23:19;;;;;;;6.80;2.55;;;;;;;;;;10035965;28;20440;-73
2023/08/31 17:28:11;;;;;;;7.95;2.55;;;;;;;;;;10035793;28;20049;-73
2023/08/31 17:33:03;;;;;;;4.95;2.53;;;;;;;;;;10036081;28;20054;-75
2023/08/31 17:37:57;;;;;;;7.63;2.60;;;;;;;;;;10034476;28;20061;-74
2023/08/31 17:42:49;;;;;;;7.03;1.85;;;;;;;;;;10029727;28;20045;-75
2023/08/31 17:47:41;;;;;;;4.72;2.55;;;;;;;;;;10029327;28;20457;-75
2023/08/31 17:52:34;;;;;;;6.55;2.60;;;;;;;;;;10028653;28;20057;-75
2023/08/31 17:57:28;;;;;;;5.38;2.95;;;;;;;;;;10028813;28;20061;-73
2023/08/31 18:02:20;;;;;;;5.93;2.72;;;;;;;;;;10026672;28;20057;-74
2023/08/31 18:07:12;;;;;;;11.50;3.40;;;;;;;;;;10027576;28;20049;-74
2023/08/31 18:12:06;;;;;;;5.68;2.10;;;;;;;;;;10028373;28;20053;-75
2023/08/31 18:16:59;;;;;;;11.80;2.90;;;;;;;;;;10028251;28;20042;-74
2023/08/31 18:21:51;;;;;;;5.28;3.17;;;;;;;;;;10027375;28;20141;-74
2023/08/31 18:26:43;;;;;;;6.07;2.60;;;;;;;;;;10027882;28;20077;-74
2023/08/31 18:31:40;;;;;;;10.32;3.83;;;;;;;;;;10027145;28;20053;-75
2023/08/31 18:36:32;;;;;;;5.63;2.83;;;;;;;;;;10026627;28;20046;-74
2023/08/31 18:41:24;;;;;;;4.05;3.10;;;;;;;;;;10027474;28;20437;-74
2023/08/31 18:46:16;;;;;;;3.67;2.47;;;;;;;;;;10027025;28;20046;-75
2023/08/31 18:51:08;;;;;;;4.60;2.92;;;;;;;;;;10025673;28;20092;-75
2023/08/31 18:56:03;;;;;;;4.35;2.13;;;;;;;;;;10027065;28;20042;-75
2023/08/31 19:00:58;;;;;;;6.40;2.47;;;;;;;;;;10026409;28;20054;-74
2023/08/31 19:05:50;;;;;;;8.80;2.80;;;;;;;;;;10026184;28;20050;-76
2023/08/31 19:10:42;;;;;;;4.57;2.58;;;;;;;;;;10025945;28;20448;-74
2023/08/31 19:15:37;;;;;;;6.50;2.65;;;;;;;;;;10025836;28;20045;-75
2023/08/31 19:20:29;;;;;;;5.85;2.15;;;;;;;;;;10025685;28;20050;-74
2023/08/31 19:25:24;;;;;;;2.60;2.35;;;;;;;;;;10025750;28;20049;-75
2023/08/31 19:30:16;;;;;;;3.60;2.53;;;;;;;;;;10025117;28;20084;-75
2023/08/31 19:35:08;;;;;;;7.45;3.20;;;;;;;;;;10025314;28;20073;-73
2023/08/31 19:40:21;;;;;;;10.27;2.55;;;;;;;;;;10006540;28;20345;-75
2023/08/31 19:45:13;;;;;;;4.30;2.00;;;;;;;;;;10025114;28;20468;-75
2023/08/31 19:50:06;;;;;;;2.95;1.88;;;;;;;;;;10024332;28;20084;-75
2023/08/31 19:54:58;;;;;;;4.75;2.22;;;;;;;;;;10024327;28;20053;-75
2023/08/31 19:59:53;;;;;;;5.15;1.90;;;;;;;;;;10023895;28;20152;-75
2023/08/31 20:04:45;;;;;;;5.45;2.13;;;;;;;;;;10023735;28;20060;-73
2023/08/31 20:09:37;;;;;;;5.07;2.55;;;;;;;;;;10023333;28;20580;-74
2023/08/31 20:14:29;;;;;;;2.45;1.48;;;;;;;;;;10024537;28;20046;-75
2023/08/31 20:19:21;;;;;;;5.70;2.20;;;;;;;;;;10023509;28;20038;-74
2023/08/31 20:24:13;;;;;;;4.78;2.25;;;;;;;;;;10023879;28;20046;-74
2023/08/31 20:29:05;;;;;;;6.38;1.60;;;;;;;;;;10023578;28;20054;-75
2023/08/31 20:33:59;;;;;;;2.90;1.65;;;;;;;;;;10023141;28;20046;-74
2023/08/31 20:38:52;;;;;;;2.35;1.45;;;;;;;;;;10023103;28;20057;-75
2023/08/31 20:43:44;;;;;;;2.08;1.40;;;;;;;;;;10023171;28;20050;-75
2023/08/31 20:48:37;;;;;;;2.47;1.73;;;;;;;;;;10005619;28;20362;-75
2023/08/31 20:53:30;;;;;;;2.47;1.90;;;;;;;;;;10023494;28;20058;-75
2023/08/31 20:58:22;;;;;;;1.75;1.52;;;;;;;;;;10022749;28;20053;-75
2023/08/31 21:03:14;;;;;;;6.22;1.75;;;;;;;;;;10022896;28;20050;-75
2023/08/31 21:08:06;;;;;;;1.83;1.40;;;;;;;;;;10022512;28;20057;-75
2023/08/31 21:12:57;;;;;;;4.28;1.60;;;;;;;;;;10021794;28;20046;-75
2023/08/31 21:17:49;;;;;;;1.98;1.35;;;;;;;;;;10029747;28;20461;-75
2023/08/31 21:22:41;;;;;;;1.52;1.30;;;;;;;;;;10030195;28;20190;-75
2023/08/31 21:27:33;;;;;;;2.13;1.48;;;;;;;;;;10029824;28;20034;-75
2023/08/31 21:32:25;;;;;;;2.13;1.58;;;;;;;;;;10029170;28;20394;-74
2023/08/31 21:37:17;;;;;;;2.60;1.55;;;;;;;;;;10029273;28;20085;-73
2023/08/31 21:42:09;;;;;;;4.65;1.73;;;;;;;;;;10029236;28;20434;-75
2023/08/31 21:47:01;;;;;;;1.45;1.27;;;;;;;;;;10028915;28;20120;-73
2023/08/31 21:51:52;;;;;;;4.70;3.10;;;;;;;;;;10028238;28;20065;-71
2023/08/31 21:56:44;;;;;;;5.43;2.50;;;;;;;;;;10027982;28;20085;-75
2023/08/31 22:01:36;;;;;;;4.60;2.00;;;;;;;;;;10061469;28;20085;-73
2023/08/31 22:06:28;;;;;;;2.90;2.42;;;;;;;;;;10028571;28;20045;-73
2023/08/31 22:11:21;;;;;;;1.60;1.50;;;;;;;;;;10028283;28;20064;-72
2023/08/31 22:16:13;;;;;;;2.55;1.45;;;;;;;;;;10049077;28;20108;-73
2023/08/31 22:21:21;;;;;;;4.30;1.80;;;;;;;;;;10050941;28;20443;-75
2023/08/31 22:26:13;;;;;;;3.28;1.67;;;;;;;;;;10035382;28;20042;-73
2023/08/31 22:31:06;;;;;;;4.45;1.70;;;;;;;;;;10053301;28;20054;-73
2023/08/31 22:36:03;;;;;;;2.40;1.77;;;;;;;;;;10032469;28;20065;-75
2023/08/31 22:40:55;;;;;;;2.88;1.60;;;;;;;;;;10026492;28;20112;-76
2023/08/31 22:45:57;;;;;;;3.13;1.92;;;;;;;;;;10027291;28;20046;-73
2023/08/31 22:51:09;;;;;;;3.47;2.03;;;;;;;;;;10023582;28;20042;-74
2023/08/31 22:56:05;;;;;;;6.18;1.95;;;;;;;;;;10006664;28;20042;-72
2023/08/31 23:00:57;;;;;;;4.90;2.90;;;;;;;;;;10033224;28;20352;-75
2023/08/31 23:05:49;;;;;;;3.65;1.90;;;;;;;;;;10039413;28;20057;-74
2023/08/31 23:10:41;;;;;;;1.98;1.58;;;;;;;;;;10029053;28;20072;-73
2023/08/31 23:15:37;;;;;;;3.00;2.38;;;;;;;;;;10025895;28;20578;-74
2023/08/31 23:20:30;;;;;;;4.40;1.85;;;;;;;;;;10030181;28;20476;-77
2023/08/31 23:25:23;;;;;;;2.30;1.50;;;;;;;;;;10033907;28;20038;-73
2023/08/31 23:30:15;;;;;;;4.00;1.70;;;;;;;;;;10024350;28;20048;-75
2023/08/31 23:35:07;;;;;;;6.47;1.75;;;;;;;;;;10024062;28;20096;-74
2023/08/31 23:39:59;;;;;;;1.92;1.67;;;;;;;;;;10024340;28;20049;-73
2023/08/31 23:44:52;;;;;;;5.90;2.15;;;;;;;;;;10024685;28;20443;-74
2023/08/31 23:49:44;;;;;;;3.13;2.03;;;;;;;;;;10024791;28;20056;-75
2023/08/31 23:54:36;;;;;;;2.53;1.63;;;;;;;;;;10023896;28;20037;-75
2023/08/31 23:59:28;;;;;;;3.90;1.80;;;;;;;;;;10023776;28;20044;-74
